Troy, TX

4:51 AM CDT on April 01, 2015 (GMT -0500)
Pandemonium Farms | | Change Station
CLOSE
Current Station
Personal Weather Station
Location: Moody, TX
Elevation: 837 ft
Nearby Weather Stations

Elev 837 ft 31.29 °N, 97.31 °W | Updated 9 minutes ago

Overcast
Overcast
67.6 °F
Feels Like 67.6 °F
N
0.0
Wind Variable Wind from South

Today
High -- | Low -- °F
--% Chance of Precip.
Yesterday
High -- | Low -- °F
Precip. -- in
7:18 AM 7:48 PM
Waxing Gibbous, 92% visible
Pressure 29.91 in
Visibility 7.0 miles
Clouds Overcast 1300 ft
Dew Point 63 °F
Humidity 86%
Rainfall 0.00 in
Snow Depth Not available.
UV 0 out of 12
Pollen 10.70 out of 12
Air Quality Not available.
Flu Activity Not available.
METAR KTPL 010935Z AUTO 15008KT 7SM OVC013 20/17 A2991 RMK AO1

More Conditions Fewer Conditions

Pressure 29.91 in
Visibility 7.0 miles
Clouds Overcast 1300 ft
Dew Point 63 °F
Humidity 86%
Rainfall 0.00 in
Snow Depth Not available.
UV 0 out of 12
Pollen 10.70 out of 12
Air Quality Not available.
Flu Activity Not available.
METAR KTPL 010935Z AUTO 15008KT 7SM OVC013 20/17 A2991 RMK AO1

More Conditions Fewer Conditions

Nowcast | as of 2:56 am CDT on April 1, 2015

Some light rain and showers will move into the western counties before daybreak while light rain exits from around Paris. Any rainfall should average less than one tenth of an inch. Elsewhere...mild and humid conditions will prevail...with early morning temperatures generally in the 60s. High clouds will continue across the region while low clouds increase over the central I-35 corridor and areas to the east.

×

10-Day Weather Forecast

Almanac

Astronomy

Apr. 01, 2015 Rise Set
Actual Time
Civil Twilight
Nautical Twilight
Astronomical Twilight
Moon
Length of Visible Light
Length of Day
Tomorrow will be .
, % of the Moon is Illuminated

Today's Extremes

State Highs State Lows

Community

WunderPhotos

Upload Photos

1,809,933 photos uploaded!

WunderBlogs® & News

Nearby

Air Quality

  Air Quality AQ Index Pollutant
Not available.

Snow Depth

Station Depth Elevation

Earthquake Activity

City Distance Mag. Time & Date
Minimum magnitude displayed is 2.5.

Coastal Water Temperatures

Place Temperature

Stations

Nearby Weather Stations

Station Location Temp. Windchill Dew Point Humidity Wind Precip. Elev Updated Type